createdAt,value
2023-04-11T00:02:06.271Z,53.58
2023-04-11T00:04:34.551Z,54.57
2023-04-11T00:07:01.687Z,55.00
2023-04-11T00:09:29.604Z,55.30
2023-04-11T00:11:59.661Z,56.26
2023-04-11T00:14:29.734Z,57.46
2023-04-11T00:16:56.846Z,58.52
2023-04-11T00:19:28.291Z,58.65
2023-04-11T00:21:58.935Z,58.47
2023-04-11T00:24:39.749Z,58.99
2023-04-11T00:27:09.128Z,58.99
2023-04-11T00:29:37.578Z,58.10
2023-04-11T00:32:06.793Z,58.69
2023-04-11T00:34:43.367Z,58.93
2023-04-11T00:37:12.979Z,58.83
2023-04-11T00:39:53.288Z,58.31
2023-04-11T00:42:23.310Z,59.33
2023-04-11T00:44:53.911Z,59.23
2023-04-11T00:47:20.798Z,59.40
2023-04-11T00:49:51.836Z,59.69
2023-04-11T00:52:23.684Z,60.96
2023-04-11T00:54:51.473Z,60.65
2023-04-11T00:57:22.805Z,61.03
2023-04-11T00:59:54.592Z,60.17
2023-04-11T01:02:21.413Z,60.17
2023-04-11T01:04:51.722Z,59.82
2023-04-11T01:07:20.331Z,59.20
2023-04-11T01:09:47.791Z,59.06
2023-04-11T01:12:16.007Z,58.60
2023-04-11T01:14:49.945Z,58.85
2023-04-11T01:17:17.557Z,58.74
2023-04-11T01:19:44.330Z,58.38
2023-04-11T01:22:13.174Z,59.17
2023-04-11T01:24:40.036Z,58.60
2023-04-11T01:27:07.404Z,58.87
2023-04-11T01:29:37.540Z,58.56
2023-04-11T01:32:06.228Z,59.05
2023-04-11T01:34:34.031Z,58.29
2023-04-11T01:37:04.793Z,58.56
2023-04-11T01:39:31.849Z,58.80
2023-04-11T01:42:03.630Z,58.14
2023-04-11T01:44:33.387Z,58.27
2023-04-11T01:47:03.491Z,58.07
2023-04-11T01:49:30.925Z,57.67
2023-04-11T01:51:58.523Z,57.24
2023-04-11T01:54:32.915Z,57.33
2023-04-11T01:57:07.062Z,56.88
2023-04-11T01:59:37.898Z,56.78
2023-04-11T02:02:05.919Z,57.39
2023-04-11T02:04:32.966Z,56.88
2023-04-11T02:06:59.567Z,56.92
2023-04-11T02:09:26.414Z,56.55
2023-04-11T02:11:57.090Z,56.52
2023-04-11T02:14:25.295Z,56.61
2023-04-11T02:16:56.608Z,56.44
2023-04-11T02:19:26.398Z,56.93
2023-04-11T02:21:58.522Z,57.23
2023-04-11T02:24:25.339Z,56.73
2023-04-11T02:26:52.041Z,56.39
2023-04-11T02:29:19.348Z,56.75
2023-04-11T02:31:52.647Z,56.74
2023-04-11T02:34:29.869Z,57.07
2023-04-11T02:37:07.085Z,56.99
2023-04-11T02:39:46.865Z,57.01
2023-04-11T02:42:41.379Z,57.14
2023-04-11T02:45:11.843Z,56.96
2023-04-11T02:47:42.435Z,57.45
2023-04-11T02:50:10.530Z,57.86
2023-04-11T02:52:48.270Z,57.72
2023-04-11T02:55:18.462Z,58.62
2023-04-11T02:57:45.643Z,58.56
2023-04-11T03:00:14.625Z,59.42
2023-04-11T03:02:47.458Z,59.02
2023-04-11T03:05:19.474Z,60.10
2023-04-11T03:07:57.960Z,60.28
2023-04-11T03:10:29.263Z,61.16
2023-04-11T03:12:57.520Z,62.77
2023-04-11T03:15:25.082Z,64.06
2023-04-11T03:17:51.907Z,64.63
2023-04-11T03:20:19.808Z,65.25
2023-04-11T03:22:49.954Z,65.83
2023-04-11T03:25:18.551Z,66.77
2023-04-11T03:27:47.241Z,67.41
2023-04-11T03:30:14.858Z,67.94
2023-04-11T03:32:47.129Z,68.73
2023-04-11T03:35:14.870Z,69.45
2023-04-11T03:37:45.744Z,70.28
2023-04-11T03:40:13.127Z,70.36
2023-04-11T03:42:46.412Z,70.72
2023-04-11T03:45:20.822Z,71.07
2023-04-11T03:47:52.868Z,71.29
2023-04-11T03:50:27.214Z,71.94
2023-04-11T03:52:58.656Z,71.93
2023-04-11T03:55:26.114Z,72.15
2023-04-11T03:57:57.119Z,72.28
2023-04-11T04:00:25.471Z,72.26
2023-04-11T04:03:01.325Z,72.37
2023-04-11T04:05:31.382Z,72.26
2023-04-11T04:08:00.135Z,72.58
2023-04-11T04:10:39.322Z,73.70
2023-04-11T04:13:06.069Z,73.48
2023-04-11T04:15:37.657Z,73.33
2023-04-11T04:18:06.608Z,73.75
2023-04-11T04:20:47.606Z,73.92
2023-04-11T04:23:17.995Z,74.56
2023-04-11T04:26:02.294Z,74.20
2023-04-11T04:28:31.918Z,73.89
2023-04-11T04:31:05.079Z,74.52
2023-04-11T04:33:42.980Z,74.22
2023-04-11T04:36:22.048Z,74.27
2023-04-11T04:38:53.231Z,74.93
2023-04-11T04:41:22.923Z,74.49
2023-04-11T04:43:59.177Z,74.50
2023-04-11T04:46:37.369Z,74.26
2023-04-11T04:49:06.606Z,74.30
2023-04-11T04:51:48.133Z,73.02
2023-04-11T04:54:19.745Z,73.64
2023-04-11T04:56:48.419Z,72.76
2023-04-11T04:59:16.481Z,71.85
2023-04-11T05:01:50.926Z,72.29
2023-04-11T05:04:24.119Z,71.76
2023-04-11T05:06:55.350Z,70.88
2023-04-11T05:09:23.342Z,70.48
2023-04-11T05:11:52.323Z,69.74
2023-04-11T05:14:21.692Z,69.34
2023-04-11T05:16:48.857Z,69.01
2023-04-11T05:19:15.693Z,69.17
2023-04-11T05:21:46.385Z,68.74
2023-04-11T05:24:13.498Z,68.54
2023-04-11T05:26:40.538Z,68.00
2023-04-11T05:29:07.854Z,66.89
2023-04-11T05:31:34.639Z,66.61
2023-04-11T05:34:02.587Z,66.11
2023-04-11T05:36:29.875Z,65.86
2023-04-11T05:38:56.666Z,64.75
2023-04-11T05:41:24.667Z,64.58
2023-04-11T05:43:51.417Z,64.38
2023-04-11T05:46:18.447Z,63.98
2023-04-11T05:48:45.485Z,63.47
2023-04-11T05:51:12.409Z,63.40
2023-04-11T05:53:39.637Z,62.71
2023-04-11T05:56:06.769Z,62.40
2023-04-11T05:58:34.624Z,62.33
2023-04-11T06:01:01.466Z,61.88
2023-04-11T06:03:28.376Z,61.93
2023-04-11T06:05:57.560Z,60.92
2023-04-11T06:08:24.392Z,60.86
2023-04-11T06:10:51.079Z,60.67
2023-04-11T06:13:18.219Z,60.17
2023-04-11T06:15:44.912Z,60.37
2023-04-11T06:18:13.071Z,59.74
2023-04-11T06:20:40.106Z,59.31
2023-04-11T06:23:07.064Z,59.26
2023-04-11T06:25:33.680Z,58.51
2023-04-11T06:28:00.421Z,58.56
2023-04-11T06:30:27.456Z,57.89
2023-04-11T06:32:54.276Z,57.34
2023-04-11T06:35:24.823Z,57.28
2023-04-11T06:37:52.349Z,56.89
2023-04-11T06:40:23.270Z,55.66
2023-04-11T06:42:50.011Z,55.01
2023-04-11T06:45:19.415Z,54.85
2023-04-11T06:47:46.166Z,54.79
2023-04-11T06:50:13.259Z,53.66
2023-04-11T06:52:40.124Z,52.56
2023-04-11T06:55:07.767Z,50.61
2023-04-11T06:57:34.979Z,48.81
2023-04-11T07:00:02.295Z,47.73
2023-04-11T07:02:29.383Z,47.65
2023-04-11T07:04:57.398Z,47.35
2023-04-11T07:07:24.324Z,47.49
2023-04-11T07:09:51.254Z,48.06
2023-04-11T07:12:17.985Z,48.50
2023-04-11T07:14:44.636Z,48.38
2023-04-11T07:17:11.346Z,49.28
2023-04-11T07:19:37.997Z,49.50
2023-04-11T07:22:04.827Z,49.12
2023-04-11T07:24:31.572Z,49.42
2023-04-11T07:26:59.273Z,49.26
2023-04-11T07:29:26.023Z,48.95
2023-04-11T07:31:53.254Z,49.70
2023-04-11T07:34:20.769Z,49.29
2023-04-11T07:36:48.024Z,48.85
2023-04-11T07:39:15.346Z,49.11
2023-04-11T07:41:42.183Z,49.67
2023-04-11T07:44:11.761Z,49.40
2023-04-11T07:46:38.713Z,49.60
2023-04-11T07:49:05.615Z,49.27
2023-04-11T07:51:33.145Z,49.12
2023-04-11T07:54:00.199Z,48.72
2023-04-11T07:56:27.267Z,48.29
2023-04-11T07:58:54.665Z,47.78
2023-04-11T08:01:25.804Z,46.99
2023-04-11T08:03:56.766Z,47.62
2023-04-11T08:06:24.136Z,47.15
2023-04-11T08:08:51.299Z,47.10
2023-04-11T08:11:18.153Z,46.75
2023-04-11T08:13:45.414Z,46.91
2023-04-11T08:16:15.883Z,47.26
2023-04-11T08:18:42.890Z,46.56
2023-04-11T08:21:11.670Z,46.65
2023-04-11T08:23:42.587Z,46.39
2023-04-11T08:26:10.752Z,45.07
2023-04-11T08:28:38.208Z,44.40
2023-04-11T08:31:06.195Z,42.56
2023-04-11T08:33:33.607Z,40.71
2023-04-11T08:36:00.917Z,39.54
2023-04-11T08:38:27.860Z,38.38
2023-04-11T08:40:55.516Z,38.45
2023-04-11T08:43:25.958Z,38.55
2023-04-11T08:45:53.745Z,38.50
2023-04-11T08:48:25.501Z,37.19
2023-04-11T08:50:52.752Z,37.18
2023-04-11T08:53:22.811Z,33.94
2023-04-11T08:55:49.636Z,28.00
2023-04-11T08:58:17.652Z,24.52
2023-04-11T09:00:44.930Z,21.99
2023-04-11T09:03:13.408Z,19.11
2023-04-11T09:05:43.524Z,16.92
2023-04-11T09:08:12.850Z,16.09
2023-04-11T09:10:43.300Z,14.28
2023-04-11T09:13:26.794Z,15.33
2023-04-11T09:16:09.474Z,15.45
2023-04-11T09:18:47.436Z,15.22
2023-04-11T09:21:16.940Z,14.06
2023-04-11T09:23:44.251Z,12.52
2023-04-11T09:26:12.953Z,12.57
2023-04-11T09:28:52.865Z,14.64
2023-04-11T09:31:41.934Z,17.27
2023-04-11T09:34:10.166Z,16.18
2023-04-11T09:36:37.304Z,18.57
2023-04-11T09:39:19.902Z,20.17
2023-04-11T09:41:48.628Z,21.97
2023-04-11T09:44:19.031Z,22.04
2023-04-11T09:46:59.923Z,24.15
2023-04-11T09:49:27.977Z,22.05
2023-04-11T09:51:56.856Z,18.27
2023-04-11T09:54:24.467Z,15.57
2023-04-11T09:56:51.262Z,12.53
2023-04-11T09:59:21.360Z,14.04
2023-04-11T10:01:52.059Z,14.05
2023-04-11T10:04:20.540Z,16.78
2023-04-11T10:07:05.086Z,19.77
2023-04-11T10:09:33.351Z,24.07
2023-04-11T10:12:02.086Z,26.24
2023-04-11T10:14:41.013Z,28.13
2023-04-11T10:17:20.624Z,28.67
2023-04-11T10:19:50.079Z,28.47
2023-04-11T10:22:51.254Z,25.30
2023-04-11T10:25:20.026Z,24.49
2023-04-11T10:27:55.146Z,20.08
2023-04-11T10:30:42.116Z,19.51
2023-04-11T10:33:14.722Z,16.75
2023-04-11T10:36:00.741Z,14.35
2023-04-11T10:38:48.857Z,14.58
2023-04-11T10:41:32.102Z,17.56
2023-04-11T10:44:25.050Z,22.00
2023-04-11T10:46:54.427Z,21.81
2023-04-11T10:49:40.527Z,19.52
2023-04-11T10:52:24.179Z,15.41
2023-04-11T10:54:53.712Z,12.83
2023-04-11T10:57:22.989Z,10.42
2023-04-11T10:59:50.555Z,9.61
2023-04-11T11:02:29.657Z,8.95
2023-04-11T11:05:21.575Z,7.81
2023-04-11T11:08:26.360Z,6.37
2023-04-11T11:10:56.835Z,7.94
2023-04-11T11:13:49.468Z,10.08
2023-04-11T11:16:22.322Z,12.67
2023-04-11T11:18:51.857Z,14.30
2023-04-11T11:21:30.608Z,15.60
2023-04-11T11:23:59.530Z,16.60
2023-04-11T11:26:40.577Z,17.64
2023-04-11T11:29:12.937Z,19.52
2023-04-11T11:31:45.849Z,21.71
2023-04-11T11:36:47.008Z,25.40
2023-04-11T11:39:16.652Z,29.38
2023-04-11T11:41:43.438Z,29.37
2023-04-11T11:44:27.738Z,33.46
2023-04-11T11:47:07.508Z,33.59
2023-04-11T11:50:00.517Z,31.93
2023-04-11T11:52:40.697Z,30.28
2023-04-11T11:55:20.198Z,25.53
2023-04-11T11:57:52.320Z,20.65
2023-04-11T12:00:25.200Z,17.42
2023-04-11T12:02:53.282Z,14.72
2023-04-11T12:05:20.774Z,13.16
2023-04-11T12:07:53.334Z,11.99
2023-04-11T12:10:20.490Z,12.20
2023-04-11T12:12:53.604Z,11.41
2023-04-11T12:15:24.043Z,11.16
2023-04-11T12:17:53.163Z,11.60
2023-04-11T12:20:27.577Z,10.62
2023-04-11T12:22:55.425Z,11.03
2023-04-11T12:25:22.684Z,12.84
2023-04-11T12:27:49.756Z,15.20
2023-04-11T12:30:16.491Z,16.78
2023-04-11T12:32:45.101Z,18.45
2023-04-11T12:35:13.020Z,20.45
2023-04-11T12:37:40.026Z,20.94
2023-04-11T12:40:13.055Z,22.93
2023-04-11T12:45:11.782Z,23.65
2023-04-11T12:47:39.094Z,24.49
2023-04-11T12:50:07.258Z,23.60
2023-04-11T12:52:37.660Z,24.03
2023-04-11T12:55:22.117Z,24.06
2023-04-11T12:57:52.027Z,24.40
2023-04-11T13:00:19.616Z,24.61
2023-04-11T13:03:14.481Z,24.32
2023-04-11T13:05:43.982Z,24.24
2023-04-11T13:08:11.282Z,24.30
2023-04-11T13:10:38.528Z,24.33
2023-04-11T13:13:17.520Z,24.11
2023-04-11T13:15:46.373Z,23.52
2023-04-11T13:18:13.354Z,23.35
2023-04-11T13:20:40.188Z,23.32
2023-04-11T13:23:07.016Z,22.83
2023-04-11T13:25:34.025Z,22.57
2023-04-11T13:28:01.108Z,22.65
2023-04-11T13:30:28.393Z,22.08
2023-04-11T13:32:55.609Z,22.14
2023-04-11T13:35:23.108Z,21.71
2023-04-11T13:37:51.910Z,21.78
2023-04-11T13:40:19.067Z,22.08
2023-04-11T13:42:47.280Z,22.01
2023-04-11T13:45:23.740Z,22.07
2023-04-11T13:47:52.455Z,22.13
2023-04-11T13:50:20.927Z,22.77
2023-04-11T13:52:48.022Z,23.67
2023-04-11T13:55:19.643Z,24.22
2023-04-11T13:57:47.255Z,24.41
2023-04-11T14:00:16.558Z,23.57
2023-04-11T14:02:44.945Z,23.79
2023-04-11T14:05:13.161Z,24.08
2023-04-11T14:07:41.889Z,24.08
2023-04-11T14:10:11.492Z,23.98
2023-04-11T14:12:39.780Z,24.09
2023-04-11T14:15:08.288Z,24.57
2023-04-11T14:17:35.229Z,24.65
2023-04-11T14:20:02.476Z,24.27
2023-04-11T14:22:29.402Z,23.85
2023-04-11T14:24:56.515Z,23.52
2023-04-11T14:27:23.326Z,24.11
2023-04-11T14:29:50.199Z,24.07
2023-04-11T14:32:18.343Z,24.31
2023-04-11T14:34:46.381Z,24.08
2023-04-11T14:37:13.342Z,24.37
2023-04-11T14:39:41.864Z,24.74
2023-04-11T14:42:12.441Z,24.37
2023-04-11T14:44:39.897Z,24.51
2023-04-11T14:47:09.838Z,24.51
2023-04-11T14:49:38.064Z,25.22
2023-04-11T14:52:05.109Z,25.34
2023-04-11T14:54:31.998Z,25.50
2023-04-11T14:57:00.542Z,25.40
2023-04-11T14:59:28.258Z,25.08
2023-04-11T15:01:55.280Z,24.33
2023-04-11T15:04:24.108Z,24.12
2023-04-11T15:06:51.393Z,24.35
2023-04-11T15:09:21.098Z,24.73
2023-04-11T15:11:48.821Z,25.08
2023-04-11T15:14:16.338Z,24.68
2023-04-11T15:16:44.345Z,25.03
2023-04-11T15:19:11.186Z,25.37
2023-04-11T15:21:38.611Z,25.23
2023-04-11T15:24:07.726Z,25.81
2023-04-11T15:26:40.579Z,25.74
2023-04-11T15:29:14.933Z,25.88
2023-04-11T15:32:02.356Z,25.44
2023-04-11T15:34:32.109Z,25.39
2023-04-11T15:37:00.416Z,25.76
2023-04-11T15:39:27.204Z,25.68
2023-04-11T15:41:53.971Z,26.16
2023-04-11T15:44:23.772Z,26.36
2023-04-11T15:47:07.947Z,25.62
2023-04-11T15:49:44.159Z,25.93
2023-04-11T15:52:11.985Z,25.65
2023-04-11T15:54:41.735Z,25.44
2023-04-11T15:57:08.566Z,25.54
2023-04-11T15:59:40.761Z,25.53
2023-04-11T16:02:08.906Z,25.56
2023-04-11T16:04:39.283Z,25.73
2023-04-11T16:07:09.573Z,25.86
2023-04-11T16:09:37.872Z,25.53
2023-04-11T16:12:04.937Z,25.88
2023-04-11T16:14:31.709Z,25.48
2023-04-11T16:16:59.711Z,25.54
2023-04-11T16:19:29.970Z,25.71
2023-04-11T16:22:06.044Z,26.00
2023-04-11T16:24:34.915Z,25.76
2023-04-11T16:27:02.683Z,25.70
2023-04-11T16:29:35.443Z,25.53
2023-04-11T16:32:02.736Z,25.36
2023-04-11T16:34:30.085Z,25.54
2023-04-11T16:36:57.195Z,25.34
2023-04-11T16:39:24.249Z,25.62
2023-04-11T16:41:51.250Z,25.71
2023-04-11T16:44:18.314Z,26.09
2023-04-11T16:46:45.160Z,26.07
2023-04-11T16:49:13.301Z,26.61
2023-04-11T16:51:40.095Z,26.07
2023-04-11T16:54:10.383Z,26.22
2023-04-11T16:56:37.547Z,26.38
2023-04-11T16:59:05.134Z,26.58
2023-04-11T17:01:32.046Z,26.35
2023-04-11T17:03:59.143Z,26.62
2023-04-11T17:06:27.353Z,26.88
2023-04-11T17:08:54.393Z,26.68
2023-04-11T17:11:21.843Z,27.10
2023-04-11T17:13:49.574Z,27.48
2023-04-11T17:16:19.819Z,27.26
2023-04-11T17:18:47.199Z,27.17
2023-04-11T17:21:14.002Z,27.94
2023-04-11T17:23:43.007Z,27.59
2023-04-11T17:26:11.413Z,27.47
2023-04-11T17:28:42.443Z,27.62
2023-04-11T17:31:20.303Z,28.14
2023-04-11T17:33:47.413Z,28.15
2023-04-11T17:36:18.274Z,28.71
2023-04-11T17:38:45.690Z,28.42
2023-04-11T17:41:14.808Z,28.99
2023-04-11T17:43:44.013Z,28.79
2023-04-11T17:46:12.473Z,29.03
2023-04-11T17:48:46.111Z,29.05
2023-04-11T17:51:13.032Z,29.27
2023-04-11T17:53:39.900Z,29.34
2023-04-11T17:56:07.890Z,29.52
2023-04-11T17:58:35.418Z,29.53
2023-04-11T18:01:04.513Z,29.55
2023-04-11T18:04:21.850Z,30.25
2023-04-11T18:07:15.309Z,29.96
2023-04-11T18:09:42.481Z,30.29
2023-04-11T18:12:09.258Z,30.37
2023-04-11T18:14:36.788Z,30.57
2023-04-11T18:17:05.210Z,30.83
2023-04-11T18:19:33.143Z,31.20
2023-04-11T18:22:00.351Z,31.35
2023-04-11T18:24:28.149Z,31.05
2023-04-11T18:26:55.335Z,31.84
2023-04-11T18:29:24.282Z,32.21
2023-04-11T18:32:19.982Z,31.92
2023-04-11T18:34:40.448Z,32.35
2023-04-11T18:37:08.015Z,32.59
2023-04-11T18:39:35.072Z,32.81
2023-04-11T18:42:04.872Z,32.81
2023-04-11T18:44:32.241Z,32.70
2023-04-11T18:47:02.780Z,33.69
2023-04-11T18:49:34.581Z,33.39
2023-04-11T18:52:02.544Z,32.80
2023-04-11T18:54:29.786Z,34.00
2023-04-11T18:56:58.281Z,34.22
2023-04-11T18:59:29.511Z,34.51
2023-04-11T19:01:59.465Z,34.07
2023-04-11T19:04:32.680Z,34.04
2023-04-11T19:07:01.497Z,34.29
2023-04-11T19:09:29.180Z,34.40
2023-04-11T19:12:01.586Z,34.98
2023-04-11T19:14:32.316Z,34.60
2023-04-11T19:17:01.547Z,35.25
2023-04-11T19:19:34.762Z,34.85
2023-04-11T19:22:18.502Z,34.91
2023-04-11T19:24:47.427Z,35.41
2023-04-11T19:27:18.316Z,35.45
2023-04-11T19:29:45.808Z,35.84
2023-04-11T19:32:13.183Z,35.41
2023-04-11T19:34:40.082Z,35.46
2023-04-11T19:37:08.940Z,35.48
2023-04-11T19:39:46.358Z,35.76
2023-04-11T19:42:21.837Z,35.84
2023-04-11T19:44:48.674Z,36.27
2023-04-11T19:47:19.569Z,36.33
2023-04-11T19:49:46.937Z,36.36
2023-04-11T19:52:18.540Z,36.25
2023-04-11T19:54:48.552Z,36.19
2023-04-11T19:57:16.893Z,36.00
2023-04-11T19:59:46.658Z,36.16
2023-04-11T20:02:20.127Z,36.66
2023-04-11T20:04:57.260Z,36.13
2023-04-11T20:07:27.617Z,36.29
2023-04-11T20:10:21.691Z,36.13
2023-04-11T20:12:59.318Z,36.47
2023-04-11T20:15:36.368Z,36.52
2023-04-11T20:18:06.561Z,36.31
2023-04-11T20:20:40.859Z,36.39
2023-04-11T20:23:25.796Z,36.63
2023-04-11T20:25:59.234Z,36.72
2023-04-11T20:28:42.409Z,36.80
2023-04-11T20:31:09.443Z,36.69
2023-04-11T20:33:46.163Z,36.77
2023-04-11T20:36:16.149Z,36.61
2023-04-11T20:38:50.124Z,36.79
2023-04-11T20:41:21.443Z,36.81
2023-04-11T20:44:05.255Z,37.08
2023-04-11T20:46:40.088Z,36.97
2023-04-11T20:49:24.739Z,36.26
2023-04-11T20:51:55.104Z,36.76
2023-04-11T20:54:23.263Z,37.12
2023-04-11T20:56:56.230Z,36.80
2023-04-11T20:59:23.269Z,36.74
2023-04-11T21:01:50.474Z,36.60
2023-04-11T21:04:19.041Z,36.66
2023-04-11T21:06:46.200Z,36.74
2023-04-11T21:09:12.987Z,37.11
2023-04-11T21:11:43.733Z,36.71
2023-04-11T21:14:12.020Z,36.72
2023-04-11T21:16:45.379Z,37.07
2023-04-11T21:19:17.253Z,36.99
2023-04-11T21:21:48.265Z,37.12
2023-04-11T21:24:15.056Z,36.86
2023-04-11T21:26:42.663Z,37.25
2023-04-11T21:29:12.474Z,37.38
2023-04-11T21:31:42.188Z,36.82
2023-04-11T21:34:08.964Z,37.13
2023-04-11T21:36:37.299Z,37.43
2023-04-11T21:39:06.091Z,37.58
2023-04-11T21:41:33.163Z,37.81
2023-04-11T21:44:00.114Z,37.45
2023-04-11T21:46:27.226Z,37.34
2023-04-11T21:48:58.863Z,38.13
2023-04-11T21:51:44.617Z,37.54
2023-04-11T21:54:16.049Z,37.24
2023-04-11T21:56:44.968Z,37.80
2023-04-11T21:59:11.977Z,37.81
2023-04-11T22:01:59.713Z,37.92
2023-04-11T22:04:47.556Z,37.57
2023-04-11T22:07:26.845Z,38.25
2023-04-11T22:10:03.423Z,38.35
2023-04-11T22:12:36.092Z,38.29
2023-04-11T22:15:04.044Z,39.06
2023-04-11T22:17:33.888Z,39.24
2023-04-11T22:20:11.271Z,39.48
2023-04-11T22:22:43.843Z,39.44
2023-04-11T22:25:10.643Z,40.25
2023-04-11T22:27:46.976Z,40.08
2023-04-11T22:30:16.553Z,40.36
2023-04-11T22:32:46.935Z,40.39
2023-04-11T22:35:14.426Z,40.77
2023-04-11T22:37:41.514Z,40.49
2023-04-11T22:40:12.206Z,40.96
2023-04-11T22:42:40.173Z,40.42
2023-04-11T22:45:08.258Z,40.78
2023-04-11T22:47:38.121Z,40.81
2023-04-11T22:50:06.139Z,40.12
2023-04-11T22:52:38.444Z,40.33
2023-04-11T22:55:07.645Z,40.75
2023-04-11T22:57:38.076Z,40.51
2023-04-11T23:00:08.070Z,40.13
2023-04-11T23:02:37.788Z,40.32
2023-04-11T23:05:08.020Z,40.26
2023-04-11T23:07:35.972Z,40.65
2023-04-11T23:10:07.475Z,40.48
2023-04-11T23:12:35.896Z,40.31
2023-04-11T23:15:04.302Z,40.80
2023-04-11T23:17:33.819Z,40.90
2023-04-11T23:20:13.719Z,40.49
2023-04-11T23:22:44.134Z,40.71
2023-04-11T23:25:16.264Z,41.22
2023-04-11T23:27:46.235Z,41.05
2023-04-11T23:30:17.856Z,41.31
2023-04-11T23:32:45.341Z,40.64
2023-04-11T23:35:17.648Z,40.93
2023-04-11T23:37:46.102Z,41.02
2023-04-11T23:40:14.188Z,40.64
2023-04-11T23:42:48.763Z,40.65
2023-04-11T23:45:22.778Z,40.98
2023-04-11T23:47:52.332Z,41.52
2023-04-11T23:50:24.618Z,41.73
2023-04-11T23:52:53.896Z,41.81
2023-04-11T23:55:27.632Z,41.73
2023-04-11T23:57:55.367Z,42.58
